Weather search by city/station or by Location Indicator (LI)

Please do one of the following:
a) Search the weather station by station, city or country name and click Search button
b) Enter the four-character Location Indicator (i.e. EFHK = Helsinki) and click Submit button

a) Search the station:   

b) Location Indicator:  

The ICAO Location Indicator code is explained here.

METAR = EFHK 291920Z 10011KT 8000 -DZ OVC004 02/01 Q0998 TEMPO 6000

STATIONEFHK
NAMEHelsinki/Vantaa Arpt, --, FI
OBSERVED29.01.2020 21:20 (29.01.2020 19:20 UTC), 5 min ago
TEMPERATURE2.0°C ( 36°F)
WINDCHILL-2.8 °C (27 °F)
WINDE (100 degrees) at 13 MPH (11 knots; 5.7 m/s)
HUMIDITY93%
PRESSURE998 hPa
CONDITIONSlight drizzle